ADDS METAR Data INFO
IDs: Format: Raw Decoded Include TAF

Data at: 0754 UTC 21 Nov 2017

KPIL 210653Z AUTO 00000KT 10SM CLR 17/17 A2997 RMK AO2 SLP147 T01670167
KPIL 210553Z AUTO 00000KT 9SM FEW055 18/17 A2998 RMK AO2 SLP150 T01780172 10189 20178 402220128 58015
KPIL 210509Z AUTO 00000KT 10SM SCT025 OVC031 18/18 A3000 RMK AO2 T01830178
KPIL 210453Z AUTO 00000KT 10SM BKN027 OVC033 18/18 A3000 RMK AO2 SLP159 T01830178
KPIL 210433Z AUTO 00000KT 10SM BKN027 OVC033 18/18 A3001 RMK AO2 T01830178
KPIL 210424Z AUTO 00000KT 10SM BKN031 BKN065 18/18 A3001 RMK AO2 T01830178
KPIL 210416Z AUTO 00000KT 10SM BKN029 BKN065 19/18 A3002 RMK AO2 T01890178
KPIL 210408Z AUTO 00000KT 10SM FEW023 SCT029 BKN065 18/18 A3002 RMK AO2 T01830178
KPIL 210353Z AUTO 00000KT 10SM BKN029 OVC065 18/18 A3002 RMK AO2 SLP164 T01830178
KPIL 210253Z AUTO 12004KT 10SM BKN060 18/18 A3002 RMK AO2 SLP165 T01830178 51004
KPIL 210153Z AUTO 05004KT 10SM OVC065 19/18 A3002 RMK AO2 SLP165 T01890178
KPIL 210053Z AUTO 01006KT 10SM FEW034 BKN045 OVC060 19/17 A3002 RMK AO2 SLP164 T01890172
KPIL 202353Z AUTO 01005KT 10SM FEW025 BKN036 OVC046 19/17 A3001 RMK AO2 SLP161 T01890167 10222 20183 56008
KPIL 202253Z AUTO 36006KT 10SM OVC037 19/16 A3001 RMK AO2 SLP161 T01940161
KPIL 202153Z AUTO 36006KT 10SM OVC037 20/16 A3001 RMK AO2 SLP161 T02000156
KPIL 202053Z AUTO 02006KT 10SM BKN035 OVC044 21/16 A3003 RMK AO2 SLP169 T02060156 56030
KPIL 201953Z AUTO 06006KT 10SM OVC039 21/15 A3006 RMK AO2 SLP177 T02110150
KPIL 201853Z AUTO 02005KT 10SM CLR 22/17 A3008 RMK AO2 SLP186 T02170167
KPIL 201806Z AUTO 33003KT 10SM FEW024 SCT029 SCT100 18/16 A3011 RMK AO2 T01830161
KPIL 201753Z AUTO 32004KT 10SM BKN027 BKN033 18/16 A3012 RMK AO2 SLP199 60014 T01830156 10183 20144 58006
KPIL 201744Z AUTO 30005KT 10SM BKN027 18/16 A3013 RMK AO2 T01780156
KPIL 201653Z AUTO 07007KT 9SM SCT035 SCT080 SCT100 15/14 A3011 RMK AO2 LTG DSNT SE RAE49 TSE04 PRESFR SLP195 P0004 T01500139
KPIL 201628Z AUTO 30008KT 5SM -RA BR FEW047 FEW090 OVC110 15/13 A3018 RMK AO2 LTG DSNT E-S TSE04 P0004 T01500133
KPIL 201610Z AUTO 00000KT 4SM VCTS RA BR BKN110 15/13 A3015 RMK AO2 LTG DSNT E AND SE TSE04 P0002 T01500133
KPIL 201553Z AUTO 36004KT 9SM -TSRA FEW048 BKN100 15/14 A3016 RMK AO2 LTG DSNT E-SW RAB09 TSB16E42B49 SLP213 P0010 T01500139
KPIL 201542Z AUTO 36005KT 6SM VCTS -RA BR FEW050 SCT080 OVC100 15/13 A3017 RMK AO2 LTG DSNT E AND SW RAB09 TSB16E42 P0010 T01500133
KPIL 201536Z AUTO 33006KT 2 1/2SM TSRA BR FEW050 BKN075 OVC100 15/13 A3018 RMK AO2 LTG DSNT E AND SW AND W RAB09 TSB16 P0009 T01500133
KPIL 201529Z AUTO 32008KT 1 3/4SM +TSRA BR SCT050 BKN075 OVC100 16/13 A3018 RMK AO2 LTG DSNT SE-W RAB09 TSB16 P0008 T01560133
KPIL 201516Z AUTO 00000KT 7SM -TSRA SCT070 BKN095 16/12 A3016 RMK AO2 LTG DSNT W RAB09 TSB16 P0001 T01610122
KPIL 201453Z AUTO 02006KT 10SM FEW037 BKN110 16/12 A3014 RMK AO2 LTG DSNT NE RAB24E46 SLP205 P0000 60000 T01610117 50005
KPIL 201353Z AUTO 35009KT 10SM BKN048 OVC055 16/09 A3017 RMK AO2 SLP214 T01610089
KPIL 201253Z AUTO 33005KT 10SM BKN047 BKN055 OVC090 15/08 A3013 RMK AO2 SLP202 T01500083
KPIL 201153Z AUTO 33007KT 10SM BKN047 OVC070 14/08 A3013 RMK AO2 SLP200 T01440083 10150 20128 55007
KPIL 201053Z AUTO 33006KT 10SM BKN049 OVC075 14/08 A3012 RMK AO2 SLP198 T01390083
KPIL 200953Z AUTO 34007KT 10SM BKN049 14/08 A3013 RMK AO2 SLP202 T01440083
KPIL 200853Z AUTO 33007KT 10SM OVC048 14/08 A3015 RMK AO2 SLP207 T01440083 56016
KPIL 200753Z AUTO 31007KT 10SM OVC049 14/08 A3016 RMK AO2 SLP211 T01390078
KPIL 200653Z AUTO 30004KT 10SM CLR 13/08 A3017 RMK AO2 SLP215 T01330078
KPIL 200553Z AUTO 31006KT 10SM SCT048 14/08 A3019 RMK AO2 SLP223 T01390083 10167 20139 402280133 58014
KPIL 200453Z AUTO 31006KT 10SM BKN048 14/08 A3022 RMK AO2 SLP233 T01440078
KPIL 200353Z AUTO 31007KT 10SM FEW047 14/08 A3023 RMK AO2 SLP236 T01390078
KPIL 200253Z AUTO 31006KT 10SM BKN044 15/08 A3023 RMK AO2 SLP237 T01500078 51010
KPIL 200153Z AUTO 31007KT 10SM SCT044 SCT110 16/09 A3023 RMK AO2 SLP235 T01560094
KPIL 200053Z AUTO 34006KT 10SM SCT110 16/10 A3021 RMK AO2 SLP229 T01560100
KPIL 192353Z AUTO 36008KT 10SM FEW040 17/10 A3020 RMK AO2 SLP227 T01670100 10211 20167 55000
KPIL 192253Z AUTO 01014KT 10SM CLR 18/11 A3019 RMK AO2 SLP222 T01830106
KPIL 192153Z AUTO 01013G19KT 10SM CLR 19/10 A3019 RMK AO2 SLP222 T01940100
KPIL 192053Z AUTO 01016KT 10SM FEW037 20/10 A3020 RMK AO2 SLP227 T02000100 56026